Time;durP1;ratioP1;P1;durP2;ratioP2;P2;SDS_P1;SDS_P2;PMS_P1;PMS_P2;Temp;Humidity;BMP_temperature;BMP_pressure;BME280_temperature;BME280_humidity;BME280_pressure;Samples;Min_cycle;Max_cycle;Signal;HPM_P1;HPM_P2
2023/03/27 00:00:52;;;;;;;1999.90;999.90;;;4.90;99.90;;;;;;6751870;88;20159;-80
2023/03/27 00:10:54;;;;;;;1999.90;999.90;;;4.60;99.90;;;;;;6749606;88;20165;-78
2023/03/27 00:20:57;;;;;;;1999.90;999.90;;;4.50;99.90;;;;;;6712288;88;20260;-79
2023/03/27 00:30:58;;;;;;;1999.90;999.90;;;4.30;99.90;;;;;;6742436;88;20217;-80
2023/03/27 00:40:59;;;;;;;1999.90;999.90;;;4.20;99.90;;;;;;6737330;88;20203;-84
2023/03/27 00:51:00;;;;;;;1999.90;999.90;;;4.00;99.90;;;;;;6745989;88;20517;-81
2023/03/27 01:01:00;;;;;;;1999.90;999.90;;;3.90;99.90;;;;;;6748855;88;20183;-80
2023/03/27 01:11:24;;;;;;;1999.90;999.90;;;3.70;99.90;;;;;;6737295;88;20211;-82
2023/03/27 01:21:45;;;;;;;1999.90;999.90;;;3.70;99.90;;;;;;6721560;88;20858;-82
2023/03/27 01:32:23;;;;;;;1999.90;999.90;;;3.50;99.90;;;;;;6727410;88;20184;-81
2023/03/27 01:42:35;;;;;;;;;;;3.30;99.90;;;;;;6746006;88;20208;-81
2023/03/27 01:52:41;;;;;;;1999.90;999.90;;;3.20;99.90;;;;;;6742859;88;20074;-81
2023/03/27 02:02:46;;;;;;;1999.90;999.90;;;3.20;99.90;;;;;;6715751;88;20694;-80
2023/03/27 02:12:58;;;;;;;1999.90;999.90;;;3.10;99.90;;;;;;6675385;88;20807;-81
2023/03/27 02:22:59;;;;;;;1999.90;999.90;;;3.00;99.90;;;;;;6724940;88;20194;-80
2023/03/27 02:33:16;;;;;;;1999.90;999.90;;;3.00;99.90;;;;;;6726419;88;20222;-82
2023/03/27 02:43:35;;;;;;;1999.90;999.90;;;3.10;99.90;;;;;;6727880;88;20161;-81
2023/03/27 02:53:41;;;;;;;1999.90;999.90;;;3.00;99.90;;;;;;6676197;88;20692;-80
2023/03/27 03:03:56;;;;;;;1999.90;999.90;;;3.00;99.90;;;;;;6649899;88;20240;-80
2023/03/27 03:13:57;;;;;;;1999.90;999.90;;;2.80;99.90;;;;;;6724084;88;20163;-79
2023/03/27 03:23:58;;;;;;;1999.90;999.90;;;2.70;99.90;;;;;;6732486;88;20233;-79
2023/03/27 03:33:58;;;;;;;1999.90;999.90;;;2.60;99.90;;;;;;6726367;88;20528;-80
2023/03/27 03:43:59;;;;;;;1999.90;999.90;;;2.50;99.90;;;;;;6744755;88;20284;-80
2023/03/27 03:54:00;;;;;;;1999.90;999.90;;;2.40;99.90;;;;;;6719413;88;20236;-80
2023/03/27 04:04:01;;;;;;;1999.90;999.90;;;2.40;99.90;;;;;;6650409;88;20214;-81
2023/03/27 04:14:01;;;;;;;1999.90;999.90;;;2.40;99.90;;;;;;6651582;88;20196;-78
2023/03/27 04:24:02;;;;;;;1999.90;999.90;;;2.50;99.90;;;;;;6649385;89;20281;-79
2023/03/27 04:34:02;;;;;;;1999.90;999.90;;;2.40;99.90;;;;;;6649689;88;20258;-79
2023/03/27 04:44:04;;;;;;;1999.90;999.90;;;2.30;99.90;;;;;;6653716;89;20240;-80
2023/03/27 04:54:06;;;;;;;1999.90;999.90;;;2.20;99.90;;;;;;6678655;88;20185;-79
2023/03/27 05:04:06;;;;;;;1999.90;999.90;;;2.10;99.90;;;;;;6744821;88;20191;-80
2023/03/27 05:14:07;;;;;;;1999.90;999.90;;;1.90;99.90;;;;;;6747105;88;20196;-80
2023/03/27 05:24:08;;;;;;;1999.90;999.90;;;1.80;99.90;;;;;;6743262;88;20546;-79
2023/03/27 05:34:09;;;;;;;1999.90;999.90;;;1.70;99.90;;;;;;6742651;88;20230;-81
2023/03/27 05:44:10;;;;;;;1999.90;999.90;;;1.80;99.90;;;;;;6735170;88;20170;-79
2023/03/27 05:54:11;;;;;;;1999.90;999.90;;;1.80;99.90;;;;;;6742945;88;20190;-79
2023/03/27 06:04:11;;;;;;;1999.90;999.90;;;1.80;99.90;;;;;;6729868;88;20198;-80
2023/03/27 06:14:12;;;;;;;1999.90;999.90;;;1.90;99.90;;;;;;6688913;88;20172;-80
2023/03/27 06:24:12;;;;;;;1999.90;999.90;;;2.00;99.90;;;;;;6723524;88;20245;-81
2023/03/27 06:34:13;;;;;;;1999.90;999.90;;;2.40;99.90;;;;;;6741423;88;20212;-81
2023/03/27 06:44:14;;;;;;;1999.90;999.90;;;2.80;99.90;;;;;;6750151;88;20195;-81
2023/03/27 06:54:15;;;;;;;1999.90;999.90;;;3.30;99.90;;;;;;6752038;88;20165;-81
2023/03/27 07:04:16;;;;;;;1999.90;999.90;;;3.80;99.90;;;;;;6752028;88;20149;-80
2023/03/27 07:14:16;;;;;;;1999.90;999.90;;;4.00;99.90;;;;;;6752151;88;20179;-81
2023/03/27 07:24:17;;;;;;;1999.90;999.90;;;4.40;99.90;;;;;;6732197;88;20165;-80
2023/03/27 07:34:17;;;;;;;1999.90;999.90;;;4.50;99.90;;;;;;6732063;88;20174;-81
2023/03/27 07:44:19;;;;;;;1999.90;999.90;;;4.50;99.90;;;;;;6732005;88;20249;-80
2023/03/27 07:54:20;;;;;;;1999.90;999.90;;;4.50;99.90;;;;;;6715986;88;20514;-81
2023/03/27 08:04:21;;;;;;;1999.90;999.90;;;4.70;99.90;;;;;;6741978;88;20206;-81
2023/03/27 08:14:25;;;;;;;1999.90;999.90;;;4.80;99.90;;;;;;6750329;88;20193;-82
2023/03/27 08:24:25;;;;;;;1999.90;999.90;;;5.30;99.90;;;;;;6730606;88;20841;-81
2023/03/27 08:34:26;;;;;;;1999.90;999.90;;;6.40;99.90;;;;;;6706111;88;20317;-82
2023/03/27 08:44:29;;;;;;;1999.90;999.90;;;8.00;99.90;;;;;;6710844;88;20923;-81
2023/03/27 08:54:35;;;;;;;1999.90;999.90;;;7.70;99.90;;;;;;6727159;88;20174;-80
2023/03/27 09:04:58;;;;;;;1999.90;999.90;;;7.70;99.90;;;;;;6731540;88;20165;-80
2023/03/27 09:15:25;;;;;;;1999.90;999.90;;;6.50;99.90;;;;;;6731979;88;20190;-80
2023/03/27 09:25:31;;;;;;;1999.90;999.90;;;6.20;99.90;;;;;;6730872;88;20158;-81
2023/03/27 09:35:34;;;;;;;1999.90;999.90;;;6.60;99.90;;;;;;6732337;88;20619;-81
2023/03/27 09:45:38;;;;;;;1999.90;999.90;;;6.60;99.90;;;;;;6731820;88;20165;-80
2023/03/27 09:55:58;;;;;;;1999.90;999.90;;;6.50;99.90;;;;;;6732438;88;20321;-79
2023/03/27 10:06:08;;;;;;;1999.90;999.90;;;4.40;99.90;;;;;;6732767;88;20270;-81
2023/03/27 10:16:08;;;;;;;1999.90;999.90;;;3.90;99.90;;;;;;6732598;88;20183;-80
2023/03/27 10:26:12;;;;;;;1999.90;999.90;;;5.90;99.90;;;;;;6713138;88;20820;-81
2023/03/27 10:36:13;;;;;;;1999.90;999.90;;;8.00;99.90;;;;;;6712893;88;20537;-81
2023/03/27 10:46:18;;;;;;;1999.90;999.90;;;8.50;99.90;;;;;;6712312;88;20236;-80
2023/03/27 10:56:57;;;;;;;1999.90;999.90;;;8.60;99.90;;;;;;6726714;88;20167;-81
2023/03/27 11:06:59;;;;;;;1999.90;999.90;;;8.60;99.90;;;;;;6727528;88;20290;-82
2023/03/27 11:17:05;;;;;;;1999.90;999.90;;;10.20;99.90;;;;;;6732440;88;20707;-81
2023/03/27 11:27:12;;;;;;;1999.90;999.90;;;10.40;99.20;;;;;;6749905;88;20223;-81
2023/03/27 11:37:27;;;;;;;1999.90;999.90;;;9.10;99.90;;;;;;6748373;88;20608;-81
2023/03/27 11:47:52;;;;;;;1999.90;999.90;;;10.40;99.90;;;;;;6746440;88;20178;-80
2023/03/27 11:58:10;;;;;;;1999.90;999.90;;;9.80;98.50;;;;;;6747654;88;20185;-81
2023/03/27 12:08:16;;;;;;;1999.90;999.90;;;9.90;99.90;;;;;;6748415;88;20187;-80
2023/03/27 12:18:38;;;;;;;1999.90;999.90;;;9.30;99.90;;;;;;6750026;88;20317;-80
2023/03/27 12:28:39;;;;;;;1999.90;999.90;;;7.70;99.90;;;;;;6732663;88;20186;-81
2023/03/27 12:38:42;;;;;;;1999.90;999.90;;;10.30;99.90;;;;;;6730973;88;20179;-81
2023/03/27 12:48:58;;;;;;;1999.90;999.90;;;9.80;99.90;;;;;;6731975;88;20178;-80
2023/03/27 12:58:59;;;;;;;1999.90;999.90;;;7.20;99.90;;;;;;6732929;88;20250;-81
2023/03/27 13:09:24;;;;;;;1999.90;999.90;;;6.70;99.90;;;;;;6732902;88;20162;-81
2023/03/27 13:19:30;;;;;;;1999.90;999.90;;;7.20;99.90;;;;;;6732975;88;20214;-80
2023/03/27 13:29:32;;;;;;;;;;;9.70;99.90;;;;;;6731115;88;20158;-81
2023/03/27 13:39:40;;;;;;;1999.90;999.90;;;10.90;99.90;;;;;;6730744;88;20030;-80
2023/03/27 13:49:59;;;;;;;1999.90;999.90;;;11.00;99.90;;;;;;6729856;88;20807;-81
2023/03/27 14:00:23;;;;;;;1999.90;999.90;;;10.90;99.90;;;;;;6711750;88;20189;-80
2023/03/27 14:11:06;;;;;;;1999.90;999.90;;;10.30;99.30;;;;;;6712000;88;20844;-80
2023/03/27 14:21:11;;;;;;;1999.90;999.90;;;8.40;99.90;;;;;;6730955;88;20186;-79
2023/03/27 14:31:17;;;;;;;1999.90;999.90;;;6.30;99.90;;;;;;6696248;89;20173;-80
2023/03/27 14:41:22;;;;;;;1999.90;999.90;;;6.00;99.90;;;;;;6698627;88;20263;-81
2023/03/27 14:51:35;;;;;;;1999.90;999.90;;;7.10;99.90;;;;;;6699032;88;20218;-81
2023/03/27 15:01:36;;;;;;;1999.90;999.90;;;8.50;99.90;;;;;;6712473;88;20170;-82
2023/03/27 15:11:38;;;;;;;1999.90;999.90;;;9.30;99.90;;;;;;6729603;88;20182;-81
2023/03/27 15:21:58;;;;;;;1999.90;999.90;;;10.40;99.90;;;;;;6733726;88;20143;-81
2023/03/27 15:32:00;;;;;;;1999.90;999.90;;;8.20;99.90;;;;;;6714195;88;20817;-80
2023/03/27 15:42:11;;;;;;;1999.90;999.90;;;6.40;99.90;;;;;;6715195;88;20170;-81
2023/03/27 15:52:31;;;;;;;1999.90;999.90;;;7.00;99.90;;;;;;6713517;88;20263;-81
2023/03/27 16:02:33;;;;;;;1999.90;999.90;;;6.60;99.90;;;;;;6726184;88;20166;-79
2023/03/27 16:12:57;;;;;;;1999.90;999.90;;;7.20;99.90;;;;;;6722936;77;20602;-75
2023/03/27 16:22:57;;;;;;;1999.90;999.90;;;7.40;99.90;;;;;;6709315;88;20191;-77
2023/03/27 16:32:59;;;;;;;1999.90;999.90;;;6.80;99.90;;;;;;6710487;88;20205;-77
2023/03/27 16:42:59;;;;;;;1999.90;999.90;;;5.50;99.90;;;;;;6707067;88;20580;-77
2023/03/27 16:53:00;;;;;;;1999.90;999.90;;;5.00;99.90;;;;;;6710297;88;20252;-76
2023/03/27 17:03:01;;;;;;;1999.90;999.90;;;5.60;99.90;;;;;;6705937;88;20351;-76
2023/03/27 17:13:01;;;;;;;1999.90;999.90;;;5.90;99.90;;;;;;6701792;88;20582;-76
2023/03/27 17:23:02;;;;;;;1999.90;999.90;;;5.60;99.90;;;;;;6704362;88;20223;-76
2023/03/27 17:33:03;;;;;;;1999.90;999.90;;;5.40;99.90;;;;;;6703351;88;20934;-76
2023/03/27 17:43:04;;;;;;;1999.90;999.90;;;5.40;99.90;;;;;;6703922;88;20194;-76
2023/03/27 17:53:05;;;;;;;1999.90;999.90;;;5.20;99.90;;;;;;6702860;88;20219;-77
2023/03/27 18:03:07;;;;;;;1999.90;999.90;;;4.90;99.90;;;;;;6701624;88;20222;-77
2023/03/27 18:13:08;;;;;;;1999.90;999.90;;;4.80;99.90;;;;;;6710024;88;20205;-76
2023/03/27 18:23:08;;;;;;;1999.90;999.90;;;4.60;99.90;;;;;;6709745;88;20189;-77
2023/03/27 18:33:10;;;;;;;1999.90;999.90;;;4.50;99.90;;;;;;6714793;88;20710;-77
2023/03/27 18:43:10;;;;;;;1999.90;999.90;;;4.50;99.90;;;;;;6705585;88;20731;-74
2023/03/27 18:53:12;;;;;;;1999.90;999.90;;;4.40;99.90;;;;;;6709961;88;20286;-76
2023/03/27 19:03:18;;;;;;;1999.90;999.90;;;4.30;99.90;;;;;;6714773;88;20178;-76
2023/03/27 19:13:19;;;;;;;1999.90;999.90;;;4.30;99.90;;;;;;6714054;88;20174;-76
2023/03/27 19:23:20;;;;;;;1999.90;999.90;;;4.20;99.90;;;;;;6701078;88;20201;-76
2023/03/27 19:33:21;;;;;;;1999.90;999.90;;;4.10;99.90;;;;;;6716401;88;20199;-76
2023/03/27 19:43:22;;;;;;;1999.90;999.90;;;4.00;99.90;;;;;;6711526;88;20185;-76
2023/03/27 19:53:22;;;;;;;1999.90;999.90;;;4.00;99.90;;;;;;6723219;88;20193;-76
2023/03/27 20:03:23;;;;;;;1999.90;999.90;;;3.70;99.90;;;;;;6726603;88;20262;-76
2023/03/27 20:13:23;;;;;;;1999.90;999.90;;;3.50;99.90;;;;;;6710818;88;20314;-77
2023/03/27 20:23:31;;;;;;;1999.90;999.90;;;3.40;99.90;;;;;;6711413;88;20317;-76
2023/03/27 20:33:32;;;;;;;1999.90;999.90;;;3.30;99.90;;;;;;6712088;88;20873;-77
2023/03/27 20:43:37;;;;;;;1999.90;999.90;;;3.20;99.90;;;;;;6726491;88;20202;-78
2023/03/27 20:53:38;;;;;;;1999.90;999.90;;;3.10;99.90;;;;;;6709185;88;20266;-76
2023/03/27 21:03:45;;;;;;;1999.90;999.90;;;2.90;99.90;;;;;;6695249;88;20213;-77
2023/03/27 21:13:45;;;;;;;1999.90;999.90;;;3.00;99.90;;;;;;6690064;88;20191;-76
2023/03/27 21:23:47;;;;;;;1999.90;999.90;;;2.80;99.90;;;;;;6697117;88;20221;-76
2023/03/27 21:33:47;;;;;;;1999.90;999.90;;;2.90;99.90;;;;;;6714613;88;20685;-77
2023/03/27 21:43:48;;;;;;;1999.90;999.90;;;2.80;99.90;;;;;;6703805;88;20227;-76
2023/03/27 21:53:48;;;;;;;1999.90;999.90;;;2.70;99.90;;;;;;6694380;88;20506;-76
2023/03/27 22:03:49;;;;;;;1999.90;999.90;;;2.50;99.90;;;;;;6707650;88;20499;-77
2023/03/27 22:13:49;;;;;;;1999.90;999.90;;;2.50;99.90;;;;;;6700434;88;20653;-76
2023/03/27 22:34:52;;;;;;;1999.90;999.90;;;2.40;99.90;;;;;;6719483;88;20225;-77
2023/03/27 22:44:52;;;;;;;1999.90;999.90;;;2.40;99.90;;;;;;6717560;88;20722;-78
2023/03/27 22:54:53;;;;;;;1999.90;999.90;;;2.30;99.90;;;;;;6718583;88;20654;-78
2023/03/27 23:04:53;;;;;;;1999.90;999.90;;;2.20;99.90;;;;;;6724016;88;20196;-78
2023/03/27 23:14:54;;;;;;;1999.90;999.90;;;2.20;99.90;;;;;;6724601;88;20247;-79
2023/03/27 23:24:54;;;;;;;1999.90;999.90;;;2.20;99.90;;;;;;6724352;88;20193;-78
2023/03/27 23:34:55;;;;;;;1999.90;999.90;;;2.10;99.90;;;;;;6721194;88;20192;-79
2023/03/27 23:44:55;;;;;;;1999.90;999.90;;;2.00;99.90;;;;;;6721654;88;20539;-79
2023/03/27 23:54:56;;;;;;;1999.90;999.90;;;1.90;99.90;;;;;;6723953;88;20367;-79
